createdAt,value
2019-03-04T00:00:49.148Z,9.03
2019-03-04T00:03:21.471Z,9.02
2019-03-04T00:05:52.117Z,9.04
2019-03-04T00:08:23.772Z,9.08
2019-03-04T00:10:55.302Z,9.06
2019-03-04T00:13:26.462Z,9.05
2019-03-04T00:15:59.072Z,9.07
2019-03-04T00:18:30.189Z,9.09
2019-03-04T00:21:01.798Z,9.06
2019-03-04T00:23:32.718Z,9.11
2019-03-04T00:26:03.904Z,9.08
2019-03-04T00:28:34.789Z,9.11
2019-03-04T00:31:05.909Z,9.15
2019-03-04T00:33:37.058Z,9.14
2019-03-04T00:36:08.045Z,9.12
2019-03-04T00:38:38.748Z,9.12
2019-03-04T00:41:10.048Z,9.14
2019-03-04T00:43:40.825Z,9.17
2019-03-04T00:46:12.000Z,9.19
2019-03-04T00:48:42.918Z,9.23
2019-03-04T00:51:13.834Z,9.24
2019-03-04T00:53:45.144Z,9.25
2019-03-04T00:56:16.236Z,9.29
2019-03-04T00:58:47.312Z,9.28
2019-03-04T01:01:19.598Z,9.28
2019-03-04T01:03:51.187Z,9.29
2019-03-04T01:06:22.316Z,9.31
2019-03-04T01:08:53.405Z,9.35
2019-03-04T01:11:24.960Z,9.36
2019-03-04T01:13:57.412Z,9.37
2019-03-04T01:16:29.069Z,9.41
2019-03-04T01:19:00.073Z,9.43
2019-03-04T01:21:31.062Z,9.43
2019-03-04T01:24:02.236Z,9.46
2019-03-04T01:26:33.784Z,9.47
2019-03-04T01:29:05.719Z,9.47
2019-03-04T01:31:36.763Z,9.45
2019-03-04T01:34:08.190Z,9.48
2019-03-04T01:36:38.948Z,9.47
2019-03-04T01:39:10.996Z,9.48
2019-03-04T01:41:43.260Z,9.48
2019-03-04T01:44:14.385Z,9.52
2019-03-04T01:46:45.428Z,9.51
2019-03-04T01:49:17.348Z,9.52
2019-03-04T01:51:48.950Z,9.48
2019-03-04T01:54:20.163Z,9.51
2019-03-04T01:56:51.200Z,9.50
2019-03-04T01:59:22.654Z,9.49
2019-03-04T02:01:53.883Z,9.49
2019-03-04T02:04:25.797Z,9.51
2019-03-04T02:06:56.711Z,9.52
2019-03-04T02:09:28.366Z,9.50
2019-03-04T02:11:59.960Z,9.52
2019-03-04T02:14:30.997Z,9.52
2019-03-04T02:17:03.379Z,9.54
2019-03-04T02:19:35.321Z,9.54
2019-03-04T02:22:06.211Z,9.56
2019-03-04T02:24:38.369Z,9.59
2019-03-04T02:27:09.471Z,9.55
2019-03-04T02:29:42.129Z,9.57
2019-03-04T02:32:13.771Z,9.55
2019-03-04T02:34:44.840Z,9.58
2019-03-04T02:37:16.128Z,9.62
2019-03-04T02:39:47.432Z,9.61
2019-03-04T02:42:18.840Z,9.61
2019-03-04T02:44:50.332Z,9.63
2019-03-04T02:47:21.693Z,9.64
2019-03-04T02:49:52.988Z,9.68
2019-03-04T02:52:23.701Z,9.68
2019-03-04T02:54:54.695Z,9.63
2019-03-04T02:57:25.642Z,9.61
2019-03-04T02:59:57.341Z,9.62
2019-03-04T03:02:28.926Z,9.62
2019-03-04T03:05:00.648Z,9.62
2019-03-04T03:07:32.765Z,9.62
2019-03-04T03:10:05.021Z,9.60
2019-03-04T03:12:35.897Z,9.59
2019-03-04T03:15:09.601Z,9.60
2019-03-04T03:17:40.701Z,9.61
2019-03-04T03:20:13.951Z,9.60
2019-03-04T03:22:45.635Z,9.59
2019-03-04T03:25:16.941Z,9.55
2019-03-04T03:27:47.430Z,9.56
2019-03-04T03:30:20.718Z,9.57
2019-03-04T03:32:52.073Z,9.55
2019-03-04T03:35:23.399Z,9.53
2019-03-04T03:37:54.469Z,9.51
2019-03-04T03:40:25.189Z,9.48
2019-03-04T03:42:56.420Z,9.45
2019-03-04T03:45:28.241Z,9.44
2019-03-04T03:47:59.291Z,9.43
2019-03-04T03:50:30.558Z,9.39
2019-03-04T03:53:01.777Z,9.41
2019-03-04T03:55:33.001Z,9.37
2019-03-04T03:58:04.297Z,9.33
2019-03-04T04:00:35.123Z,9.31
2019-03-04T04:03:06.390Z,9.32
2019-03-04T04:05:37.835Z,9.30
2019-03-04T04:08:08.845Z,9.27
2019-03-04T04:10:39.894Z,9.28
2019-03-04T04:13:10.703Z,9.28
2019-03-04T04:15:41.954Z,9.26
2019-03-04T04:18:13.231Z,9.23
2019-03-04T04:20:48.562Z,9.23
2019-03-04T04:23:21.173Z,9.24
2019-03-04T04:25:52.597Z,9.25
2019-03-04T04:28:23.819Z,9.22
2019-03-04T04:30:54.690Z,9.23
2019-03-04T04:33:26.029Z,9.26
2019-03-04T04:35:57.036Z,9.27
2019-03-04T04:38:27.851Z,9.31
2019-03-04T04:40:59.039Z,9.34
2019-03-04T04:43:30.202Z,9.35
2019-03-04T04:46:01.079Z,9.35
2019-03-04T04:48:32.288Z,9.36
2019-03-04T04:51:03.095Z,9.35
2019-03-04T04:53:34.531Z,9.37
2019-03-04T04:56:05.759Z,9.40
2019-03-04T04:58:36.636Z,9.43
2019-03-04T05:01:07.671Z,9.47
2019-03-04T05:03:38.952Z,9.53
2019-03-04T05:06:13.018Z,9.56
2019-03-04T05:08:43.346Z,9.59
2019-03-04T05:11:14.378Z,9.56
2019-03-04T05:13:48.417Z,9.56
2019-03-04T05:16:19.399Z,9.60
2019-03-04T05:18:50.306Z,9.64
2019-03-04T05:21:21.672Z,9.60
2019-03-04T05:23:55.932Z,9.55
2019-03-04T05:26:31.975Z,9.53
2019-03-04T05:29:11.722Z,9.50
2019-03-04T05:37:47.424Z,9.42
2019-03-04T05:40:29.104Z,9.41
2019-03-04T05:43:01.457Z,9.45
2019-03-04T05:45:32.319Z,9.46
2019-03-04T05:48:04.068Z,9.45
2019-03-04T05:50:35.620Z,9.46
2019-03-04T05:53:07.008Z,9.42
2019-03-04T05:55:38.961Z,9.44
2019-03-04T05:58:10.369Z,9.48
2019-03-04T06:00:43.345Z,9.49
2019-03-04T06:03:18.070Z,9.49
2019-03-04T06:05:49.526Z,9.49
2019-03-04T06:08:21.289Z,9.49
2019-03-04T06:10:52.842Z,9.50
2019-03-04T06:13:24.510Z,9.49
2019-03-04T06:15:55.806Z,9.54
2019-03-04T06:18:27.718Z,9.56
2019-03-04T06:20:59.032Z,9.58
2019-03-04T06:23:30.497Z,9.59
2019-03-04T06:26:02.596Z,9.57
2019-03-04T06:28:34.352Z,9.54
2019-03-04T06:31:05.377Z,9.51
2019-03-04T06:33:37.145Z,9.49
2019-03-04T06:36:08.746Z,9.50
2019-03-04T06:38:39.421Z,9.49
2019-03-04T06:41:10.567Z,9.50
2019-03-04T06:43:41.329Z,9.51
2019-03-04T06:46:12.145Z,9.54
2019-03-04T06:48:42.928Z,9.56
2019-03-04T06:51:16.781Z,9.56
2019-03-04T06:53:50.187Z,9.58
2019-03-04T06:56:24.415Z,9.63
2019-03-04T06:58:56.882Z,9.65
2019-03-04T07:01:30.977Z,9.70
2019-03-04T07:04:05.350Z,9.75
2019-03-04T07:06:36.494Z,9.84
2019-03-04T07:09:08.699Z,9.92
2019-03-04T07:11:40.013Z,10.04
2019-03-04T07:14:11.412Z,10.14
2019-03-04T07:16:43.042Z,10.20
2019-03-04T07:19:15.859Z,10.22
2019-03-04T07:21:47.453Z,10.21
2019-03-04T07:24:18.934Z,10.25
2019-03-04T07:26:50.500Z,10.33
2019-03-04T07:29:21.733Z,10.39
2019-03-04T07:31:53.667Z,10.47
2019-03-04T07:34:26.274Z,10.54
2019-03-04T07:36:57.628Z,10.59
2019-03-04T07:39:28.866Z,10.67
2019-03-04T07:42:00.508Z,10.77
2019-03-04T07:44:33.360Z,10.86
2019-03-04T07:47:04.299Z,10.95
2019-03-04T07:49:36.451Z,11.01
2019-03-04T07:52:08.229Z,11.07
2019-03-04T07:54:39.373Z,11.16
2019-03-04T07:57:11.819Z,11.24
2019-03-04T07:59:43.012Z,11.39
2019-03-04T08:02:15.574Z,11.47
2019-03-04T08:04:46.869Z,11.50
2019-03-04T08:07:22.291Z,11.50
2019-03-04T08:12:38.291Z,11.54
2019-03-04T08:15:10.412Z,11.59
2019-03-04T08:17:42.131Z,11.62
2019-03-04T08:20:14.428Z,11.64
2019-03-04T08:22:46.879Z,11.64
2019-03-04T08:25:19.026Z,11.60
2019-03-04T08:27:50.071Z,11.59
2019-03-04T08:30:23.381Z,11.61
2019-03-04T08:32:54.672Z,11.55
2019-03-04T08:35:26.703Z,11.55
2019-03-04T08:37:58.336Z,11.55
2019-03-04T08:40:29.298Z,11.55
2019-03-04T08:43:00.243Z,11.59
2019-03-04T08:45:33.210Z,11.62
2019-03-04T08:48:05.684Z,11.63
2019-03-04T08:50:38.901Z,11.69
2019-03-04T08:53:10.410Z,11.75
2019-03-04T08:55:42.490Z,11.85
2019-03-04T08:58:13.649Z,11.93
2019-03-04T09:00:44.370Z,12.06
2019-03-04T09:03:15.249Z,12.20
2019-03-04T09:05:48.010Z,12.40
2019-03-04T09:08:20.169Z,12.64
2019-03-04T09:10:52.368Z,12.80
2019-03-04T09:13:23.657Z,12.80
2019-03-04T09:15:55.207Z,12.81
2019-03-04T09:18:26.802Z,12.88
2019-03-04T09:20:57.718Z,12.98
2019-03-04T09:23:29.104Z,13.06
2019-03-04T09:26:03.604Z,13.09
2019-03-04T09:28:36.109Z,13.25
2019-03-04T09:31:08.563Z,13.39
2019-03-04T09:33:39.728Z,13.42
2019-03-04T09:36:12.328Z,13.39
2019-03-04T09:38:45.001Z,13.37
2019-03-04T09:41:17.584Z,13.30
2019-03-04T09:43:50.394Z,13.32
2019-03-04T09:46:23.334Z,13.30
2019-03-04T09:48:56.066Z,13.33
2019-03-04T09:51:28.345Z,13.37
2019-03-04T09:54:00.944Z,13.39
2019-03-04T09:56:31.963Z,13.49
2019-03-04T09:59:05.008Z,13.57
2019-03-04T10:01:40.634Z,13.62
2019-03-04T10:04:13.301Z,13.67
2019-03-04T10:06:48.526Z,13.71
2019-03-04T10:09:22.822Z,13.74
2019-03-04T10:11:55.265Z,13.72
2019-03-04T10:14:29.898Z,13.70
2019-03-04T10:17:04.314Z,13.78
2019-03-04T10:19:38.693Z,13.80
2019-03-04T10:22:12.894Z,13.82
2019-03-04T10:24:47.388Z,13.85
2019-03-04T10:27:21.467Z,13.96
2019-03-04T10:29:55.759Z,14.05
2019-03-04T10:32:29.845Z,14.12
2019-03-04T10:35:07.433Z,14.24
2019-03-04T10:37:42.623Z,14.35
2019-03-04T10:40:16.675Z,14.49
2019-03-04T10:42:51.172Z,14.61
2019-03-04T10:45:26.214Z,14.72
2019-03-04T10:47:57.477Z,14.72
2019-03-04T10:50:28.763Z,14.64
2019-03-04T10:52:59.949Z,14.56
2019-03-04T10:55:41.216Z,14.44
2019-03-04T10:58:04.027Z,14.36
2019-03-04T11:00:36.955Z,14.38
2019-03-04T11:03:07.876Z,14.38
2019-03-04T11:05:39.231Z,14.49
2019-03-04T11:08:11.159Z,14.55
2019-03-04T11:10:42.244Z,14.61
2019-03-04T11:13:13.525Z,14.66
2019-03-04T11:15:44.551Z,14.76
2019-03-04T11:18:26.651Z,14.82
2019-03-04T11:20:57.929Z,14.85
2019-03-04T11:23:30.634Z,14.85
2019-03-04T11:26:01.734Z,14.86
2019-03-04T11:28:33.044Z,14.88
2019-03-04T11:31:04.545Z,14.90
2019-03-04T11:33:36.030Z,14.90
2019-03-04T11:36:09.558Z,14.92
2019-03-04T11:38:43.455Z,14.93
2019-03-04T11:41:17.451Z,14.94
2019-03-04T11:43:49.819Z,14.90
2019-03-04T11:46:22.553Z,14.92
2019-03-04T11:48:53.705Z,14.92
2019-03-04T11:51:26.711Z,14.89
2019-03-04T11:53:57.577Z,14.96
2019-03-04T11:56:28.877Z,15.03
2019-03-04T11:59:00.166Z,15.17
2019-03-04T12:01:32.979Z,15.24
2019-03-04T12:04:04.324Z,15.31
2019-03-04T12:06:36.070Z,15.44
2019-03-04T12:09:10.581Z,15.51
2019-03-04T12:11:43.062Z,15.70
2019-03-04T12:14:15.469Z,15.90
2019-03-04T12:16:46.548Z,16.02
2019-03-04T12:19:17.590Z,16.03
2019-03-04T12:21:48.629Z,15.97
2019-03-04T12:24:19.758Z,15.94
2019-03-04T12:26:51.018Z,15.86
2019-03-04T12:29:21.999Z,15.85
2019-03-04T12:31:54.549Z,15.82
2019-03-04T12:34:25.717Z,15.78
2019-03-04T12:36:57.310Z,15.79
2019-03-04T12:39:28.069Z,15.73
2019-03-04T12:41:58.950Z,15.68
2019-03-04T12:44:32.984Z,15.62
2019-03-04T12:47:04.871Z,15.59
2019-03-04T12:49:36.230Z,15.59
2019-03-04T12:52:07.451Z,15.60
2019-03-04T12:54:38.428Z,15.60
2019-03-04T12:57:10.150Z,15.56
2019-03-04T12:59:41.269Z,15.60
2019-03-04T13:02:14.910Z,15.60
2019-03-04T13:04:46.469Z,15.59
2019-03-04T13:07:19.548Z,15.52
2019-03-04T13:09:52.035Z,15.47
2019-03-04T13:12:23.145Z,15.42
2019-03-04T13:14:53.990Z,15.38
2019-03-04T13:17:25.605Z,15.30
2019-03-04T13:19:56.526Z,15.29
2019-03-04T13:22:28.318Z,15.27
2019-03-04T13:24:59.737Z,15.27
2019-03-04T13:27:31.356Z,15.23
2019-03-04T13:30:03.007Z,15.28
2019-03-04T13:32:35.496Z,15.34
2019-03-04T13:35:09.979Z,15.36
2019-03-04T13:37:43.848Z,15.39
2019-03-04T13:40:15.153Z,15.39
2019-03-04T13:42:52.081Z,15.41
2019-03-04T13:45:24.240Z,15.41
2019-03-04T13:47:56.960Z,15.46
2019-03-04T13:50:30.282Z,15.47
2019-03-04T13:53:01.924Z,15.49
2019-03-04T13:55:32.571Z,15.49
2019-03-04T13:58:03.841Z,15.50
2019-03-04T14:00:43.960Z,15.68
2019-03-04T14:03:21.324Z,15.95
2019-03-04T14:05:53.966Z,16.20
2019-03-04T14:08:24.706Z,16.38
2019-03-04T14:10:55.480Z,16.56
2019-03-04T14:13:26.065Z,16.67
2019-03-04T14:15:57.988Z,16.59
2019-03-04T14:18:28.865Z,16.45
2019-03-04T14:20:59.546Z,16.28
2019-03-04T14:23:31.885Z,16.14
2019-03-04T14:26:03.624Z,16.09
2019-03-04T14:28:35.125Z,16.04
2019-03-04T14:31:05.704Z,15.97
2019-03-04T14:33:36.303Z,15.91
2019-03-04T14:36:07.067Z,15.84
2019-03-04T14:38:38.066Z,15.86
2019-03-04T14:41:09.336Z,15.86
2019-03-04T14:43:43.611Z,15.84
2019-03-04T14:46:19.227Z,15.90
2019-03-04T14:48:50.087Z,15.94
2019-03-04T14:51:20.471Z,15.95
2019-03-04T14:53:51.107Z,15.94
2019-03-04T14:56:23.294Z,15.90
2019-03-04T14:59:09.543Z,15.89
2019-03-04T15:01:27.602Z,15.86
2019-03-04T15:03:58.545Z,15.79
2019-03-04T15:06:29.028Z,15.73
2019-03-04T15:08:59.906Z,15.68
2019-03-04T15:11:32.584Z,15.60
2019-03-04T15:14:03.534Z,15.60
2019-03-04T15:16:34.466Z,15.60
2019-03-04T15:19:06.320Z,15.70
2019-03-04T15:21:37.107Z,15.69
2019-03-04T15:24:08.265Z,15.53
2019-03-04T15:26:43.891Z,15.44
2019-03-04T15:29:12.408Z,15.27
2019-03-04T15:31:43.147Z,15.18
2019-03-04T15:34:14.305Z,15.15
2019-03-04T15:36:47.345Z,15.04
2019-03-04T15:39:22.831Z,14.98
2019-03-04T15:41:52.345Z,15.00
2019-03-04T15:44:23.865Z,14.93
2019-03-04T15:46:54.677Z,14.88
2019-03-04T15:49:26.546Z,14.82
2019-03-04T15:51:57.267Z,14.75
2019-03-04T15:54:28.004Z,14.68
2019-03-04T15:57:01.544Z,14.67
2019-03-04T15:59:33.477Z,14.57
2019-03-04T16:02:06.146Z,14.49
2019-03-04T16:04:37.236Z,14.36
2019-03-04T16:07:09.886Z,14.30
2019-03-04T16:09:41.025Z,14.19
2019-03-04T16:12:13.662Z,14.13
2019-03-04T16:14:50.054Z,14.02
2019-03-04T16:17:22.555Z,13.96
2019-03-04T16:19:53.552Z,13.89
2019-03-04T16:22:24.035Z,13.77
2019-03-04T16:24:55.932Z,13.64
2019-03-04T16:27:27.186Z,13.58
2019-03-04T16:29:57.843Z,13.52
2019-03-04T16:32:28.895Z,13.47
2019-03-04T16:35:00.300Z,13.38
2019-03-04T16:37:32.035Z,13.34
2019-03-04T16:40:03.090Z,13.26
2019-03-04T16:42:34.019Z,13.24
2019-03-04T16:45:07.665Z,13.23
2019-03-04T16:47:38.082Z,13.18
2019-03-04T16:50:11.698Z,13.13
2019-03-04T16:52:42.844Z,13.08
2019-03-04T16:55:15.306Z,13.07
2019-03-04T16:57:46.044Z,13.04
2019-03-04T17:00:21.186Z,12.98
2019-03-04T17:02:51.827Z,12.95
2019-03-04T17:05:22.549Z,12.90
2019-03-04T17:07:53.266Z,12.86
2019-03-04T17:10:26.030Z,12.83
2019-03-04T17:12:57.505Z,12.84
2019-03-04T17:15:28.118Z,12.81
2019-03-04T17:17:58.717Z,12.76
2019-03-04T17:20:29.505Z,12.76
2019-03-04T17:23:00.173Z,12.76
2019-03-04T17:25:30.882Z,12.74
2019-03-04T17:28:01.808Z,12.75
2019-03-04T17:30:32.777Z,12.76
2019-03-04T17:33:03.835Z,12.79
2019-03-04T17:35:34.465Z,12.81
2019-03-04T17:38:04.927Z,12.87
2019-03-04T17:40:35.569Z,12.86
2019-03-04T17:43:19.562Z,12.88
2019-03-04T17:45:56.548Z,12.86
2019-03-04T17:48:28.056Z,12.87
2019-03-04T17:50:58.883Z,12.88
2019-03-04T17:53:30.574Z,12.87
2019-03-04T17:56:01.476Z,12.87
2019-03-04T17:58:32.264Z,12.81
2019-03-04T18:01:02.830Z,12.81
2019-03-04T18:03:35.239Z,12.80
2019-03-04T18:06:06.046Z,12.80
2019-03-04T18:08:36.945Z,12.78
2019-03-04T18:11:07.605Z,12.79
2019-03-04T18:13:39.902Z,12.76
2019-03-04T18:16:10.598Z,12.72
2019-03-04T18:18:41.562Z,12.70
2019-03-04T18:21:11.946Z,12.67
2019-03-04T18:23:42.749Z,12.62
2019-03-04T18:26:16.625Z,12.55
2019-03-04T18:28:57.491Z,12.56
2019-03-04T18:31:27.783Z,12.52
2019-03-04T18:34:03.677Z,12.50
2019-03-04T18:36:39.066Z,12.48
2019-03-04T18:39:11.786Z,12.48
2019-03-04T18:41:48.905Z,12.50
2019-03-04T18:44:23.488Z,12.46
2019-03-04T18:46:55.488Z,12.47
2019-03-04T18:49:26.706Z,12.43
2019-03-04T18:51:59.825Z,12.41
2019-03-04T18:54:30.614Z,12.42
2019-03-04T18:57:01.577Z,12.40
2019-03-04T18:59:36.176Z,12.41
2019-03-04T19:02:10.047Z,12.39
2019-03-04T19:04:40.686Z,12.32
2019-03-04T19:07:11.327Z,12.02
2019-03-04T19:09:42.258Z,11.81
2019-03-04T19:12:13.966Z,11.50
2019-03-04T19:14:45.627Z,11.33
2019-03-04T19:17:16.865Z,11.16
2019-03-04T19:19:50.103Z,10.96
2019-03-04T19:22:21.865Z,10.88
2019-03-04T19:24:54.114Z,10.74
2019-03-04T19:27:26.670Z,10.67
2019-03-04T19:29:58.311Z,10.55
2019-03-04T19:32:29.590Z,10.51
2019-03-04T19:35:01.087Z,10.40
2019-03-04T19:37:32.290Z,10.24
2019-03-04T19:40:06.217Z,10.10
2019-03-04T19:42:37.215Z,9.96
2019-03-04T19:45:11.715Z,9.87
2019-03-04T19:47:42.734Z,9.81
2019-03-04T19:50:19.051Z,9.68
2019-03-04T19:52:49.864Z,9.61
2019-03-04T19:55:20.972Z,9.51
2019-03-04T19:57:53.854Z,9.35
2019-03-04T20:00:27.849Z,9.16
2019-03-04T20:02:59.077Z,8.98
2019-03-04T20:05:32.409Z,8.87
2019-03-04T20:08:04.273Z,8.85
2019-03-04T20:10:36.230Z,8.79
2019-03-04T20:13:07.224Z,8.76
2019-03-04T20:15:40.077Z,8.63
2019-03-04T20:18:10.590Z,8.54
2019-03-04T20:20:43.083Z,8.52
2019-03-04T20:23:16.223Z,8.46
2019-03-04T20:25:51.003Z,8.37
2019-03-04T20:28:28.104Z,8.33
2019-03-04T20:31:00.384Z,8.27
2019-03-04T20:33:31.724Z,8.20
2019-03-04T20:36:03.125Z,8.17
2019-03-04T20:38:37.466Z,8.12
2019-03-04T20:41:09.660Z,8.09
2019-03-04T20:43:41.071Z,8.01
2019-03-04T20:46:12.140Z,7.96
2019-03-04T20:48:43.384Z,7.95
2019-03-04T20:51:14.780Z,7.88
2019-03-04T20:53:45.819Z,7.87
2019-03-04T20:56:16.923Z,7.83
2019-03-04T20:58:48.065Z,7.75
2019-03-04T21:01:19.047Z,7.74
2019-03-04T21:04:04.807Z,7.73
2019-03-04T21:06:36.127Z,7.65
2019-03-04T21:09:06.992Z,7.56
2019-03-04T21:11:37.947Z,7.59
2019-03-04T21:14:20.367Z,7.53
2019-03-04T21:16:55.016Z,7.56
2019-03-04T21:19:26.097Z,7.52
2019-03-04T21:21:57.573Z,7.51
2019-03-04T21:24:28.560Z,7.46
2019-03-04T21:26:59.430Z,7.51
2019-03-04T21:29:42.582Z,7.46
2019-03-04T21:32:38.902Z,7.51
2019-03-04T21:35:29.720Z,7.44
2019-03-04T21:38:07.036Z,7.49
2019-03-04T21:40:41.659Z,7.49
2019-03-04T21:43:16.742Z,7.47
2019-03-04T21:45:51.137Z,7.47
2019-03-04T21:48:25.427Z,7.51
2019-03-04T21:50:59.637Z,7.45
2019-03-04T21:53:34.020Z,7.47
2019-03-04T21:56:06.094Z,7.51
2019-03-04T21:58:38.133Z,7.46
2019-03-04T22:01:14.417Z,7.41
2019-03-04T22:03:46.895Z,7.37
2019-03-04T22:06:17.662Z,7.26
2019-03-04T22:08:48.592Z,7.17
2019-03-04T22:11:19.662Z,7.15
2019-03-04T22:13:50.626Z,7.11
2019-03-04T22:16:22.339Z,7.13
2019-03-04T22:18:54.499Z,7.14
2019-03-04T22:21:25.369Z,7.06
2019-03-04T22:23:56.504Z,7.03
2019-03-04T22:26:28.031Z,7.06
2019-03-04T22:28:58.827Z,7.06
2019-03-04T22:31:33.347Z,7.02
2019-03-04T22:34:06.239Z,7.08
2019-03-04T22:36:37.360Z,7.02
2019-03-04T22:39:09.505Z,7.01
2019-03-04T22:41:41.037Z,7.03
2019-03-04T22:44:13.392Z,7.01
2019-03-04T22:46:44.662Z,7.03
2019-03-04T22:49:16.802Z,7.03
2019-03-04T22:51:47.997Z,7.04
2019-03-04T22:54:19.390Z,7.07
2019-03-04T22:56:50.924Z,7.07
2019-03-04T22:59:22.167Z,7.04
2019-03-04T23:01:54.886Z,7.08
2019-03-04T23:04:26.261Z,7.11
2019-03-04T23:07:00.772Z,7.06
2019-03-04T23:09:35.110Z,7.08
2019-03-04T23:12:08.095Z,7.09
2019-03-04T23:14:38.845Z,7.07
2019-03-04T23:17:09.587Z,7.04
2019-03-04T23:19:40.954Z,7.08
2019-03-04T23:22:12.337Z,7.09
2019-03-04T23:24:43.405Z,7.10
2019-03-04T23:27:14.376Z,7.10
2019-03-04T23:29:45.479Z,7.06
2019-03-04T23:32:17.030Z,7.03
2019-03-04T23:34:48.452Z,7.10
2019-03-04T23:37:19.468Z,7.03
2019-03-04T23:39:50.657Z,7.03
2019-03-04T23:42:21.651Z,7.07
2019-03-04T23:44:52.814Z,7.08
2019-03-04T23:47:23.676Z,7.08
2019-03-04T23:49:57.995Z,7.09
2019-03-04T23:52:29.183Z,7.09
2019-03-04T23:55:00.421Z,7.09
2019-03-04T23:57:31.173Z,7.14
